Time;durP1;ratioP1;P1;durP2;ratioP2;P2;SDS_P1;SDS_P2;PMS_P1;PMS_P2;Temp;Humidity;BMP_temperature;BMP_pressure;BME280_temperature;BME280_humidity;BME280_pressure;Samples;Min_cycle;Max_cycle;Signal;HPM_P1;HPM_P2
2023/05/02 00:00:24;;;;;;;4.43;2.97;;;;;;;14.45;64.60;95127.09;4974051;28;20174;-75
2023/05/02 00:02:49;;;;;;;4.83;3.17;;;;;;;14.45;64.40;95132.41;4966181;28;20502;-74
2023/05/02 00:05:15;;;;;;;5.57;3.03;;;;;;;14.41;64.54;95136.56;4935957;29;20502;-74
2023/05/02 00:07:40;;;;;;;3.83;2.83;;;;;;;14.42;64.82;95135.53;4953074;29;20436;-75
2023/05/02 00:10:07;;;;;;;4.33;2.80;;;;;;;14.46;64.81;95136.66;4953435;28;20431;-74
2023/05/02 00:12:32;;;;;;;3.58;3.22;;;;;;;14.54;64.28;95131.03;4954307;28;20174;-75
2023/05/02 00:14:58;;;;;;;3.78;3.10;;;;;;;14.60;64.33;95134.63;4953433;29;20478;-74
2023/05/02 00:17:23;;;;;;;3.83;2.80;;;;;;;14.54;64.43;95131.03;4962202;28;20166;-75
2023/05/02 00:19:49;;;;;;;4.03;2.90;;;;;;;14.48;64.52;95131.16;4973242;28;20410;-75
2023/05/02 00:22:14;;;;;;;5.53;3.10;;;;;;;14.31;65.52;95139.72;4972312;28;20409;-75
2023/05/02 00:24:39;;;;;;;4.15;2.67;;;;;;;14.42;65.02;95147.97;4972442;28;20438;-74
2023/05/02 00:27:05;;;;;;;4.23;3.07;;;;;;;14.31;65.08;95133.63;4972946;28;20912;-75
2023/05/02 00:29:31;;;;;;;3.22;2.88;;;;;;;14.38;65.43;95147.56;4956939;28;21368;-74
2023/05/02 00:31:59;;;;;;;3.27;2.90;;;;;;;14.32;65.35;95145.84;4952596;28;20447;-74
2023/05/02 00:34:31;;;;;;;4.65;3.38;;;;;;;14.28;65.69;95150.75;4953621;29;20450;-74
2023/05/02 00:36:56;;;;;;;4.80;3.47;;;;;;;14.31;65.44;95152.16;4953353;29;20453;-74
2023/05/02 00:39:22;;;;;;;5.00;3.35;;;;;;;14.31;65.37;95152.97;4952950;29;20906;-74
2023/05/02 00:41:48;;;;;;;3.07;2.77;;;;;;;14.21;66.25;95170.44;4952936;28;20221;-74
2023/05/02 00:44:13;;;;;;;3.27;2.97;;;;;;;14.24;65.68;95173.44;4965626;28;20186;-75
2023/05/02 00:46:39;;;;;;;4.37;3.20;;;;;;;14.33;65.82;95166.00;4954695;28;20796;-74
2023/05/02 00:49:04;;;;;;;3.40;3.10;;;;;;;14.24;65.86;95157.56;4961572;28;20491;-74
2023/05/02 00:51:33;;;;;;;4.97;3.43;;;;;;;14.19;65.65;95148.66;4965922;28;20433;-74
2023/05/02 00:54:00;;;;;;;3.22;2.80;;;;;;;14.42;65.44;95171.81;4964625;28;20363;-74
2023/05/02 00:56:25;;;;;;;5.20;3.30;;;;;;;14.47;65.25;95174.56;4952333;28;20511;-75
2023/05/02 00:58:51;;;;;;;3.67;2.92;;;;;;;14.43;65.40;95174.22;4953615;28;20264;-75
2023/05/02 01:01:35;;;;;;;4.10;3.15;;;;;;;14.26;65.73;95171.38;4963204;28;20420;-74
2023/05/02 01:04:07;;;;;;;3.30;3.00;;;;;;;14.26;66.24;95171.38;4971244;28;20417;-75
2023/05/02 01:06:40;;;;;;;4.93;3.30;;;;;;;14.18;66.58;95169.03;4959559;28;20413;-74
2023/05/02 01:09:36;;;;;;;4.05;2.85;;;;;;;14.18;66.59;95168.25;4972335;28;20499;-75
2023/05/02 01:12:19;;;;;;;4.82;3.05;;;;;;;14.10;67.45;95168.53;4971392;28;20432;-74
2023/05/02 01:14:52;;;;;;;3.42;3.08;;;;;;;14.14;67.12;95167.06;4963473;28;20508;-75
2023/05/02 01:17:21;;;;;;;3.60;3.30;;;;;;;14.12;67.28;95158.53;4971441;28;20931;-74
2023/05/02 01:19:53;;;;;;;5.13;3.40;;;;;;;14.08;67.54;95155.56;4971471;28;20421;-74
2023/05/02 01:22:19;;;;;;;3.80;3.13;;;;;;;14.11;67.32;95157.72;4966361;28;20478;-74
2023/05/02 01:25:00;;;;;;;4.55;3.17;;;;;;;14.11;67.56;95148.97;4952056;28;20861;-74
2023/05/02 01:27:49;;;;;;;3.28;2.97;;;;;;;14.07;67.72;95146.00;4951928;28;20423;-74
2023/05/02 01:30:17;;;;;;;3.25;2.70;;;;;;;14.13;67.60;95146.91;4951627;29;20435;-74
2023/05/02 01:32:45;;;;;;;5.38;3.42;;;;;;;14.12;67.83;95146.09;4951572;28;20443;-74
2023/05/02 01:35:14;;;;;;;5.43;3.43;;;;;;;13.91;68.67;95141.31;4950403;28;20932;-74
2023/05/02 01:37:43;;;;;;;3.42;3.03;;;;;;;13.81;69.06;95147.16;4951685;28;20423;-74
2023/05/02 01:40:10;;;;;;;4.07;3.00;;;;;;;13.67;69.82;95150.16;4952584;29;20493;-74
2023/05/02 01:42:38;;;;;;;4.93;3.28;;;;;;;13.34;70.07;95101.13;4952374;28;20423;-74
2023/05/02 01:45:06;;;;;;;4.97;3.47;;;;;;;13.61;70.03;95154.50;4952059;29;20415;-75
2023/05/02 01:47:34;;;;;;;3.85;3.38;;;;;;;13.62;70.33;95155.31;4952742;29;20452;-74
2023/05/02 01:50:02;;;;;;;5.53;3.42;;;;;;;13.41;70.57;95133.59;4952652;28;20497;-74
2023/05/02 01:52:29;;;;;;;4.10;3.63;;;;;;;13.55;70.69;95153.56;4951383;28;20423;-75
2023/05/02 01:54:58;;;;;;;5.50;3.58;;;;;;;13.68;70.28;95162.38;4951489;28;20810;-75
2023/05/02 01:57:24;;;;;;;3.47;3.17;;;;;;;13.70;70.27;95153.19;4951655;28;20422;-74
2023/05/02 01:59:50;;;;;;;4.87;3.60;;;;;;;13.76;69.92;95157.56;4951797;28;20426;-75
2023/05/02 02:02:17;;;;;;;5.13;3.42;;;;;;;13.72;70.12;95145.84;4951677;29;20501;-74
2023/05/02 02:04:43;;;;;;;4.03;3.40;;;;;;;13.57;70.68;95146.22;4951821;28;20505;-74
2023/05/02 02:07:12;;;;;;;3.85;3.55;;;;;;;13.56;71.19;95149.91;4951275;29;20928;-74
2023/05/02 02:09:38;;;;;;;3.80;3.30;;;;;;;13.45;71.02;95131.31;4951459;28;20454;-74
2023/05/02 02:12:04;;;;;;;3.50;3.20;;;;;;;13.48;71.28;95147.56;4951950;29;20415;-74
2023/05/02 02:14:36;;;;;;;4.68;3.42;;;;;;;13.42;71.39;95143.13;4952410;29;20820;-75
2023/05/02 02:17:15;;;;;;;4.32;3.35;;;;;;;13.39;71.59;95143.59;4951503;28;20419;-74
2023/05/02 02:19:42;;;;;;;3.95;3.55;;;;;;;13.05;72.51;95115.06;4951413;28;20474;-74
2023/05/02 02:22:12;;;;;;;4.93;3.40;;;;;;;13.09;72.86;95143.47;4952593;29;20283;-74
2023/05/02 02:24:38;;;;;;;4.93;3.42;;;;;;;13.05;73.37;95146.78;4951396;29;20489;-74
2023/05/02 02:27:03;;;;;;;4.55;3.38;;;;;;;13.03;73.43;95146.19;4963882;28;20504;-74
2023/05/02 02:29:29;;;;;;;4.68;3.50;;;;;;;13.09;73.22;95146.09;4965922;28;22362;-74
2023/05/02 02:31:54;;;;;;;4.10;3.47;;;;;;;13.07;73.15;95161.38;4953453;28;20502;-74
2023/05/02 02:34:21;;;;;;;4.68;3.63;;;;;;;12.98;73.46;95140.72;4971220;28;20849;-74
2023/05/02 02:37:30;;;;;;;5.57;3.38;;;;;;;12.97;73.50;95149.72;4954641;28;20502;-74
2023/05/02 02:40:07;;;;;;;5.15;3.80;;;;;;;12.90;73.92;95148.94;4854639;29;20495;-74
2023/05/02 02:42:38;;;;;;;5.43;3.80;;;;;;;12.84;74.25;95147.97;4854967;29;20519;-75
2023/05/02 02:45:21;;;;;;;4.60;4.00;;;;;;;12.96;73.78;95162.09;4924439;28;21009;-75
2023/05/02 02:47:51;;;;;;;4.95;3.97;;;;;;;13.12;73.06;95156.25;4970725;28;20470;-75
2023/05/02 02:50:26;;;;;;;4.70;3.80;;;;;;;13.11;73.11;95162.56;4970294;28;20947;-75
2023/05/02 02:52:59;;;;;;;4.90;4.10;;;;;;;12.96;73.49;95154.19;4955125;28;20418;-75
2023/05/02 02:55:59;;;;;;;4.53;3.63;;;;;;;12.87;73.55;95166.06;4950845;29;20475;-75
2023/05/02 02:58:42;;;;;;;5.20;3.90;;;;;;;12.75;74.35;95175.69;4946110;29;20506;-75
2023/05/02 03:01:13;;;;;;;5.53;3.80;;;;;;;12.75;74.52;95173.06;4951034;28;20503;-75
2023/05/02 03:03:41;;;;;;;5.90;4.03;;;;;;;12.76;75.22;95170.19;4951308;28;20419;-75
2023/05/02 03:06:07;;;;;;;4.20;3.80;;;;;;;12.92;74.23;95179.41;4953671;28;20419;-75
2023/05/02 03:08:40;;;;;;;4.60;3.37;;;;;;;13.00;73.66;95175.69;4956085;29;20416;-75
2023/05/02 03:11:07;;;;;;;6.37;3.77;;;;;;;12.87;74.01;95183.75;4969880;28;20448;-75
2023/05/02 03:13:32;;;;;;;5.95;4.80;;;;;;;12.74;74.79;95189.94;4973811;28;20803;-75
2023/05/02 03:16:11;;;;;;;6.10;4.40;;;;;;;12.77;74.13;95192.16;4967858;28;20411;-75
2023/05/02 03:18:36;;;;;;;6.40;4.43;;;;;;;12.77;73.92;95177.09;4958659;28;20442;-75
2023/05/02 03:21:02;;;;;;;6.10;4.13;;;;;;;13.00;73.43;95200.28;4969166;28;20183;-75
2023/05/02 03:23:27;;;;;;;6.60;4.40;;;;;;;13.06;73.21;95199.41;4955604;29;20193;-74
2023/05/02 03:25:53;;;;;;;5.60;4.17;;;;;;;13.06;72.56;95202.03;4954580;28;21016;-74
2023/05/02 03:28:18;;;;;;;6.50;4.27;;;;;;;13.08;72.73;95202.63;4960721;28;20259;-74
2023/05/02 03:30:44;;;;;;;8.80;5.90;;;;;;;13.09;72.96;95208.72;4974071;28;20288;-74
2023/05/02 03:33:09;;;;;;;13.93;7.60;;;;;;;13.06;72.73;95202.03;4972827;28;20493;-74
2023/05/02 03:35:34;;;;;;;5.70;4.23;;;;;;;13.00;73.00;95191.53;4973966;28;20448;-73
2023/05/02 03:38:00;;;;;;;4.87;4.27;;;;;;;13.03;73.13;95204.31;4972603;28;20418;-74
2023/05/02 03:40:26;;;;;;;5.57;3.97;;;;;;;12.91;73.39;95198.94;4972467;28;20417;-74
2023/05/02 03:42:52;;;;;;;6.10;4.30;;;;;;;12.79;74.14;95201.47;4972342;28;20413;-73
2023/05/02 03:45:17;;;;;;;7.90;3.77;;;;;;;12.73;74.26;95191.75;4972778;28;20915;-74
2023/05/02 03:47:43;;;;;;;4.70;3.92;;;;;;;12.65;74.39;95199.13;4972690;28;20417;-74
2023/05/02 03:50:09;;;;;;;5.23;4.03;;;;;;;12.61;74.34;95197.97;4972874;28;20477;-73
2023/05/02 03:52:34;;;;;;;5.35;4.00;;;;;;;12.66;74.49;95206.03;4973168;28;20430;-73
2023/05/02 03:55:00;;;;;;;5.90;4.35;;;;;;;12.61;74.28;95206.69;4972697;28;20421;-73
2023/05/02 03:57:29;;;;;;;4.87;3.73;;;;;;;12.69;73.71;95201.16;4970314;28;20187;-73
2023/05/02 03:59:54;;;;;;;5.90;3.93;;;;;;;12.80;73.84;95207.53;4954364;29;20179;-74
2023/05/02 04:02:20;;;;;;;4.73;3.77;;;;;;;12.81;73.70;95204.69;4954709;29;20241;-74
2023/05/02 04:04:45;;;;;;;4.27;3.83;;;;;;;12.92;73.21;95207.66;4954295;29;20182;-74
2023/05/02 04:07:16;;;;;;;4.67;3.93;;;;;;;13.07;72.42;95203.66;4970696;28;20192;-74
2023/05/02 04:09:42;;;;;;;5.87;3.70;;;;;;;13.19;72.09;95204.59;4973557;28;20212;-74
2023/05/02 04:12:08;;;;;;;8.70;4.00;;;;;;;13.28;71.94;95215.72;4973663;28;20186;-74
2023/05/02 04:14:33;;;;;;;3.63;3.10;;;;;;;13.47;70.57;95222.63;4973424;28;20184;-74
2023/05/02 04:16:58;;;;;;;14.53;4.00;;;;;;;13.37;70.52;95214.41;4972900;28;20272;-74
2023/05/02 04:19:24;;;;;;;5.90;4.00;;;;;;;13.55;70.23;95208.31;4973223;28;20565;-74
2023/05/02 04:21:50;;;;;;;6.27;4.13;;;;;;;13.74;69.51;95209.13;4961102;28;20178;-74
2023/05/02 04:24:15;;;;;;;4.57;3.60;;;;;;;13.74;69.00;95199.34;4953833;28;20182;-74
2023/05/02 04:26:40;;;;;;;7.03;3.90;;;;;;;13.58;69.40;95206.03;4961248;28;20186;-75
2023/05/02 04:29:06;;;;;;;3.90;3.33;;;;;;;13.84;68.67;95209.38;4967879;28;20178;-74
2023/05/02 04:31:32;;;;;;;6.80;3.70;;;;;;;13.85;67.76;95190.66;4953681;29;20750;-74
2023/05/02 04:33:57;;;;;;;4.80;3.47;;;;;;;14.14;67.15;95217.38;4953560;28;20178;-74
2023/05/02 04:36:24;;;;;;;5.93;3.67;;;;;;;14.15;66.43;95211.84;4960524;28;20174;-74
2023/05/02 04:38:50;;;;;;;5.90;3.30;;;;;;;14.12;66.96;95216.78;4973024;28;20562;-74
2023/05/02 04:41:16;;;;;;;6.73;3.83;;;;;;;14.16;66.14;95223.25;4955629;28;20179;-74
2023/05/02 04:43:41;;;;;;;4.77;3.93;;;;;;;14.42;65.58;95220.28;4953659;29;20683;-74
2023/05/02 04:46:07;;;;;;;4.13;3.03;;;;;;;14.47;65.21;95215.09;4956327;28;20190;-74
2023/05/02 04:48:32;;;;;;;5.40;3.70;;;;;;;14.38;65.00;95215.63;4971891;28;20169;-74
2023/05/02 04:50:57;;;;;;;5.63;3.83;;;;;;;14.46;64.66;95232.03;4971356;28;20260;-74
2023/05/02 04:53:23;;;;;;;4.83;3.47;;;;;;;14.73;64.34;95222.66;4971458;28;20188;-74
2023/05/02 04:55:48;;;;;;;4.30;3.60;;;;;;;14.96;63.13;95231.72;4963182;28;20174;-74
2023/05/02 04:58:14;;;;;;;7.73;3.70;;;;;;;15.06;62.30;95231.94;4952576;28;20637;-74
2023/05/02 05:00:39;;;;;;;8.20;3.23;;;;;;;14.93;62.05;95217.06;4952978;28;20279;-74
2023/05/02 05:03:05;;;;;;;5.40;3.53;;;;;;;15.15;61.32;95221.81;4970741;28;20184;-74
2023/05/02 05:05:31;;;;;;;5.20;3.03;;;;;;;15.24;60.84;95212.47;4972380;28;20658;-74
2023/05/02 05:07:56;;;;;;;4.37;2.90;;;;;;;15.42;60.18;95215.00;4972303;28;20273;-74
2023/05/02 05:10:22;;;;;;;4.17;2.80;;;;;;;15.47;59.98;95221.25;4972222;28;20233;-74
2023/05/02 05:12:48;;;;;;;5.88;3.33;;;;;;;15.46;59.56;95209.00;4972347;28;20178;-74
2023/05/02 05:15:14;;;;;;;5.73;2.97;;;;;;;15.57;58.87;95198.66;4972294;28;20568;-74
2023/05/02 05:17:40;;;;;;;4.15;3.05;;;;;;;15.76;58.08;95224.00;4972094;28;20244;-74
2023/05/02 05:20:08;;;;;;;3.97;2.90;;;;;;;15.69;58.05;95221.47;4972032;28;20177;-74
2023/05/02 05:22:40;;;;;;;5.82;2.85;;;;;;;15.82;57.40;95228.38;4972066;28;20178;-74
2023/05/02 05:25:06;;;;;;;4.83;3.27;;;;;;;15.61;59.03;95211.22;4971739;28;20189;-74
2023/05/02 05:27:36;;;;;;;7.40;3.80;;;;;;;15.58;58.93;95240.06;4971281;28;20196;-74
2023/05/02 05:30:05;;;;;;;6.67;3.33;;;;;;;15.61;58.65;95218.38;4971650;28;20209;-74
2023/05/02 05:32:32;;;;;;;6.93;3.05;;;;;;;15.64;58.81;95223.22;4969399;28;20222;-74
2023/05/02 05:34:57;;;;;;;4.45;3.33;;;;;;;15.84;58.25;95228.94;4952478;28;20200;-74
2023/05/02 05:37:23;;;;;;;5.13;3.50;;;;;;;15.85;58.03;95233.22;4952546;28;20186;-74
2023/05/02 05:39:48;;;;;;;5.82;3.53;;;;;;;15.68;58.06;95232.31;4935395;29;20189;-74
2023/05/02 05:42:14;;;;;;;3.80;3.20;;;;;;;15.83;57.79;95240.59;4952660;29;20183;-74
2023/05/02 05:44:39;;;;;;;3.92;3.28;;;;;;;15.86;57.58;95248.09;4957786;28;20261;-74
2023/05/02 05:47:04;;;;;;;4.50;3.60;;;;;;;15.88;59.06;95254.00;4952598;28;20190;-74
2023/05/02 05:49:30;;;;;;;4.47;3.25;;;;;;;16.14;56.85;95244.69;4952262;29;20217;-74
2023/05/02 05:51:56;;;;;;;4.75;2.83;;;;;;;16.02;56.47;95254.53;4952571;28;20211;-74
2023/05/02 05:54:21;;;;;;;3.85;3.10;;;;;;;16.11;56.67;95248.63;4952079;28;20178;-74
2023/05/02 05:56:47;;;;;;;3.35;2.67;;;;;;;16.32;56.41;95243.72;4952376;28;20201;-74
2023/05/02 05:59:13;;;;;;;6.68;4.25;;;;;;;16.59;54.74;95256.22;4952485;29;20919;-74
2023/05/02 06:01:41;;;;;;;3.95;3.03;;;;;;;16.64;55.03;95260.81;4953811;28;20178;-74
2023/05/02 06:04:06;;;;;;;4.05;3.33;;;;;;;16.92;53.40;95266.13;4963668;28;20436;-74
2023/05/02 06:06:32;;;;;;;4.90;2.70;;;;;;;16.74;53.29;95253.03;4971864;28;20178;-74
2023/05/02 06:08:58;;;;;;;3.55;2.67;;;;;;;16.98;53.70;95269.66;4968223;28;20648;-74
2023/05/02 06:11:25;;;;;;;3.47;2.88;;;;;;;16.86;53.59;95258.31;4971340;28;20221;-75
2023/05/02 06:13:51;;;;;;;6.03;3.08;;;;;;;16.71;53.55;95261.47;4971481;28;20256;-74
2023/05/02 06:16:17;;;;;;;6.00;3.10;;;;;;;16.64;53.42;95263.47;4962447;28;20187;-74
2023/05/02 06:18:43;;;;;;;3.22;2.65;;;;;;;16.45;53.91;95264.69;4952187;29;20181;-74
2023/05/02 06:21:08;;;;;;;3.22;2.90;;;;;;;16.54;54.91;95252.63;4959550;28;20607;-75
2023/05/02 06:23:34;;;;;;;2.88;2.58;;;;;;;16.80;53.17;95262.72;4971330;28;20710;-74
2023/05/02 06:26:02;;;;;;;3.45;2.40;;;;;;;16.53;52.80;95259.78;4971073;28;20185;-74
2023/05/02 06:28:28;;;;;;;6.70;3.00;;;;;;;16.40;53.61;95256.63;4954165;28;20261;-74
2023/05/02 06:31:01;;;;;;;8.60;3.13;;;;;;;16.44;54.18;95253.25;4951859;29;20212;-75
2023/05/02 06:33:28;;;;;;;4.90;3.00;;;;;;;16.16;54.09;95221.38;4930340;29;20198;-74
2023/05/02 06:35:54;;;;;;;3.65;2.75;;;;;;;16.51;53.62;95274.38;4932974;29;20175;-74
2023/05/02 06:38:20;;;;;;;3.20;2.65;;;;;;;16.60;53.10;95262.34;4949899;28;20226;-75
2023/05/02 06:40:45;;;;;;;4.38;2.80;;;;;;;16.68;52.65;95258.50;4955970;29;20194;-74
2023/05/02 06:43:14;;;;;;;4.13;2.83;;;;;;;16.36;53.83;95260.78;4947948;29;20174;-74
2023/05/02 06:45:40;;;;;;;4.32;3.28;;;;;;;16.68;52.26;95258.50;4955711;29;20569;-75
2023/05/02 06:48:07;;;;;;;3.20;2.67;;;;;;;17.15;51.93;95257.19;4955929;29;20179;-75
2023/05/02 06:50:33;;;;;;;4.38;2.50;;;;;;;17.61;49.76;95258.69;4955672;29;20201;-74
2023/05/02 06:52:58;;;;;;;3.28;2.75;;;;;;;17.39;50.41;95263.16;4955510;29;20186;-75
2023/05/02 06:55:23;;;;;;;5.43;2.90;;;;;;;17.62;49.78;95257.69;4938828;29;20575;-75
2023/05/02 06:57:50;;;;;;;3.95;2.72;;;;;;;17.61;49.45;95253.38;4936423;29;20210;-75
2023/05/02 07:00:16;;;;;;;4.22;2.35;;;;;;;17.89;48.66;95255.13;4936153;29;20167;-75
2023/05/02 07:02:41;;;;;;;4.13;2.63;;;;;;;17.93;48.53;95240.25;4941994;29;20182;-75
2023/05/02 07:05:07;;;;;;;7.20;2.63;;;;;;;18.04;48.44;95258.00;4944607;29;20235;-75
2023/05/02 07:07:33;;;;;;;5.63;2.83;;;;;;;18.03;47.79;95221.75;4935638;29;20268;-75
2023/05/02 07:09:58;;;;;;;4.07;2.50;;;;;;;18.57;47.28;95245.03;4939488;29;20207;-74
2023/05/02 07:12:25;;;;;;;5.40;2.60;;;;;;;18.69;45.92;95237.69;4947614;29;20277;-74
2023/05/02 07:14:50;;;;;;;3.95;2.60;;;;;;;18.91;45.64;95259.78;4950662;29;20198;-75
2023/05/02 07:17:16;;;;;;;3.90;2.72;;;;;;;18.74;45.08;95267.09;4936288;29;20858;-75
2023/05/02 07:19:41;;;;;;;5.93;2.30;;;;;;;18.53;45.48;95276.69;4939545;29;20179;-74
2023/05/02 07:22:07;;;;;;;4.05;2.40;;;;;;;18.49;45.55;95248.94;4940730;29;20190;-76
2023/05/02 07:24:32;;;;;;;3.45;2.35;;;;;;;18.70;46.08;95261.44;4936188;29;20177;-74
2023/05/02 07:26:57;;;;;;;3.10;2.40;;;;;;;18.95;45.76;95260.88;4935790;29;20710;-73
2023/05/02 07:29:23;;;;;;;4.65;2.50;;;;;;;19.42;44.93;95258.34;4943428;29;20167;-74
2023/05/02 07:31:49;;;;;;;3.95;2.15;;;;;;;18.97;43.92;95261.44;4961847;28;20225;-75
2023/05/02 07:34:14;;;;;;;5.40;2.70;;;;;;;18.97;43.77;95260.63;4956867;28;20263;-75
2023/05/02 07:36:39;;;;;;;2.95;2.47;;;;;;;19.15;44.42;95260.25;4955009;29;20221;-75
2023/05/02 07:39:05;;;;;;;5.18;2.33;;;;;;;19.47;42.68;95257.56;4958999;28;20179;-75
2023/05/02 07:41:30;;;;;;;4.40;2.25;;;;;;;19.38;42.94;95259.91;4954811;29;20648;-75
2023/05/02 07:43:56;;;;;;;5.70;2.58;;;;;;;19.50;43.39;95244.56;4954826;28;20202;-76
2023/05/02 07:46:22;;;;;;;4.65;2.10;;;;;;;19.70;41.78;95272.47;4954895;28;20170;-76
2023/05/02 07:48:48;;;;;;;2.97;2.30;;;;;;;19.62;42.15;95268.41;4958753;28;20264;-75
2023/05/02 07:51:14;;;;;;;4.68;2.38;;;;;;;19.62;42.23;95263.06;4973351;28;20313;-75
2023/05/02 07:53:39;;;;;;;2.45;2.10;;;;;;;19.57;41.60;95266.50;4973766;28;20178;-75
2023/05/02 07:56:07;;;;;;;5.78;2.45;;;;;;;19.67;41.78;95260.41;4973646;28;20709;-75
2023/05/02 07:58:34;;;;;;;5.10;2.65;;;;;;;19.79;42.05;95254.91;4973570;28;20236;-75
2023/05/02 08:00:59;;;;;;;3.30;2.38;;;;;;;19.85;42.45;95251.19;4965744;28;20210;-75
2023/05/02 08:03:26;;;;;;;2.20;2.00;;;;;;;20.30;41.71;95253.28;4962772;28;20261;-75
2023/05/02 08:05:52;;;;;;;4.85;2.60;;;;;;;20.63;40.31;95254.75;4954433;29;20186;-75
2023/05/02 08:08:18;;;;;;;4.22;2.40;;;;;;;20.56;39.83;95249.66;4953604;28;20185;-75
2023/05/02 08:10:44;;;;;;;2.92;2.33;;;;;;;20.74;39.35;95244.88;4966516;28;20205;-73
2023/05/02 08:13:10;;;;;;;4.30;2.08;;;;;;;21.05;39.47;95260.72;4958367;28;20194;-73
2023/05/02 08:15:35;;;;;;;2.88;2.10;;;;;;;21.02;39.70;95266.59;4964430;28;20592;-73
2023/05/02 08:18:00;;;;;;;2.80;2.05;;;;;;;20.71;38.93;95260.41;4960060;28;20652;-73
2023/05/02 08:20:26;;;;;;;2.35;2.15;;;;;;;20.50;40.49;95264.06;4954426;28;20178;-73
2023/05/02 08:22:51;;;;;;;3.67;2.20;;;;;;;19.94;40.77;95252.31;4973441;28;20241;-74
2023/05/02 08:25:16;;;;;;;3.08;1.92;;;;;;;19.27;42.11;95250.22;4969108;28;20585;-74
2023/05/02 08:27:42;;;;;;;4.75;2.40;;;;;;;19.11;42.77;95256.50;4954347;28;20179;-74
2023/05/02 08:30:07;;;;;;;6.25;2.65;;;;;;;19.18;43.61;95268.59;4971867;28;20208;-74
2023/05/02 08:32:34;;;;;;;4.18;2.20;;;;;;;19.08;43.52;95257.81;4968643;28;20241;-74
2023/05/02 08:35:00;;;;;;;4.82;2.10;;;;;;;18.75;44.09;95250.03;4956568;28;20197;-73
2023/05/02 08:37:25;;;;;;;4.57;2.20;;;;;;;18.93;43.25;95252.34;4973314;28;20221;-73
2023/05/02 08:39:50;;;;;;;2.42;2.13;;;;;;;18.78;44.10;95252.16;4973063;28;20540;-74
2023/05/02 08:42:16;;;;;;;2.38;2.15;;;;;;;18.72;43.67;95254.00;4961193;28;20208;-73
2023/05/02 08:44:41;;;;;;;8.57;2.20;;;;;;;18.77;44.04;95250.56;4953726;28;20229;-73
2023/05/02 08:47:10;;;;;;;2.20;2.00;;;;;;;19.36;45.65;95251.38;4963660;28;20244;-74
2023/05/02 08:49:36;;;;;;;4.45;2.20;;;;;;;19.82;43.95;95249.00;4959441;28;20189;-74
2023/05/02 08:52:05;;;;;;;3.22;2.03;;;;;;;19.63;41.27;95245.19;4953541;28;20680;-73
2023/05/02 08:54:31;;;;;;;2.55;2.15;;;;;;;19.53;42.37;95244.06;4954593;28;20850;-73
2023/05/02 08:56:58;;;;;;;4.82;2.20;;;;;;;19.40;41.80;95241.78;4965382;28;20193;-74
2023/05/02 08:59:24;;;;;;;4.90;2.10;;;;;;;19.36;41.69;95237.22;4971352;28;20185;-73
2023/05/02 09:01:55;;;;;;;2.50;2.05;;;;;;;19.10;42.75;95234.34;4972495;28;20694;-74
2023/05/02 09:04:25;;;;;;;4.32;2.00;;;;;;;18.88;43.13;95246.94;4963478;28;20177;-74
2023/05/02 09:06:50;;;;;;;4.90;1.95;;;;;;;18.73;43.14;95236.13;4953810;28;20178;-73
2023/05/02 09:09:16;;;;;;;3.30;2.50;;;;;;;18.83;43.85;95234.38;4953168;28;20643;-73
2023/05/02 09:11:46;;;;;;;5.07;2.03;;;;;;;18.77;42.48;95239.88;4953166;29;20740;-73
2023/05/02 09:14:15;;;;;;;4.00;2.08;;;;;;;18.60;42.87;95218.66;4936540;29;20186;-74
2023/05/02 09:16:41;;;;;;;3.15;2.28;;;;;;;18.76;43.01;95235.63;4951487;28;20204;-74
2023/05/02 09:19:06;;;;;;;2.78;2.38;;;;;;;18.73;43.24;95238.81;4953207;29;20828;-74
2023/05/02 09:21:38;;;;;;;4.47;2.53;;;;;;;18.74;43.32;95235.88;4950275;29;20174;-74
2023/05/02 09:24:16;;;;;;;2.97;2.08;;;;;;;18.79;42.86;95238.59;4950699;28;20186;-74
2023/05/02 09:26:42;;;;;;;2.67;1.98;;;;;;;18.74;42.81;95240.41;4950883;28;20191;-74
2023/05/02 09:29:07;;;;;;;7.03;1.85;;;;;;;18.53;43.42;95235.88;4951620;28;20616;-75
2023/05/02 09:31:40;;;;;;;5.25;1.88;;;;;;;18.65;43.45;95231.25;4955755;28;20238;-74
2023/05/02 09:34:14;;;;;;;2.80;1.92;;;;;;;18.91;43.28;95227.78;4951603;28;20186;-74
2023/05/02 09:36:43;;;;;;;2.35;2.05;;;;;;;19.07;42.17;95226.84;4952955;29;20179;-74
2023/05/02 09:39:10;;;;;;;5.15;2.30;;;;;;;19.07;41.76;95224.16;4952834;29;20179;-74
2023/05/02 09:41:42;;;;;;;3.60;2.55;;;;;;;19.16;42.06;95219.97;4952832;29;20539;-74
2023/05/02 09:44:12;;;;;;;2.63;2.35;;;;;;;19.27;40.93;95233.41;4951053;29;20624;-74
2023/05/02 09:46:43;;;;;;;2.20;1.90;;;;;;;19.38;40.55;95224.38;4952501;29;20652;-74
2023/05/02 09:49:09;;;;;;;2.10;1.90;;;;;;;19.26;40.52;95213.09;4952736;29;20178;-74
2023/05/02 09:51:35;;;;;;;11.70;2.45;;;;;;;19.35;40.07;95214.25;4952878;29;20289;-73
2023/05/02 09:54:00;;;;;;;2.80;1.83;;;;;;;19.27;40.99;95183.50;4952204;28;20272;-74
2023/05/02 09:56:26;;;;;;;4.15;1.85;;;;;;;19.69;39.88;95204.88;4957634;28;20249;-74
2023/05/02 09:59:11;;;;;;;5.25;1.90;;;;;;;19.97;40.32;95209.03;4952453;28;20182;-74
2023/05/02 10:01:37;;;;;;;3.90;2.13;;;;;;;20.03;39.04;95217.88;4952453;29;20266;-74
2023/05/02 10:04:03;;;;;;;2.60;1.90;;;;;;;19.87;39.82;95217.81;4952402;29;20700;-76
2023/05/02 10:06:29;;;;;;;1.83;1.67;;;;;;;19.81;40.50;95205.44;4952212;29;20197;-74
2023/05/02 10:08:55;;;;;;;2.15;1.95;;;;;;;19.77;38.82;95204.38;4951945;28;20178;-74
2023/05/02 10:11:21;;;;;;;4.30;1.95;;;;;;;19.82;39.14;95204.41;4952029;28;20691;-75
2023/05/02 10:13:47;;;;;;;3.17;1.90;;;;;;;19.75;39.50;95198.47;4953845;28;20197;-74
2023/05/02 10:16:21;;;;;;;5.80;2.30;;;;;;;19.89;38.64;95194.28;4958223;28;20186;-74
2023/05/02 10:19:06;;;;;;;2.90;1.77;;;;;;;19.91;39.36;95186.00;4958364;28;20190;-74
2023/05/02 10:21:33;;;;;;;5.88;1.83;;;;;;;19.83;39.91;95198.00;4958331;28;20210;-74
2023/05/02 10:24:02;;;;;;;2.38;1.80;;;;;;;19.79;38.67;95186.22;4957893;28;20193;-74
2023/05/02 10:26:28;;;;;;;3.25;2.03;;;;;;;19.89;38.36;95188.94;4958041;28;20204;-74
2023/05/02 10:28:55;;;;;;;4.57;2.03;;;;;;;19.69;37.99;95186.16;4958196;28;20261;-74
2023/05/02 10:31:21;;;;;;;2.88;2.00;;;;;;;19.68;37.81;95181.88;4958009;28;20253;-74
2023/05/02 10:33:50;;;;;;;1.90;1.70;;;;;;;19.72;37.72;95174.94;4958145;28;20238;-74
2023/05/02 10:36:20;;;;;;;4.97;2.40;;;;;;;19.92;37.65;95174.25;4958189;28;20269;-75
2023/05/02 10:38:45;;;;;;;3.55;2.40;;;;;;;20.03;36.66;95188.47;4967974;28;20649;-74
2023/05/02 10:41:15;;;;;;;4.25;2.10;;;;;;;20.09;41.59;95179.38;4977515;28;20655;-74
2023/05/02 10:43:46;;;;;;;2.42;1.83;;;;;;;20.23;37.51;95167.16;4977447;28;20256;-74
2023/05/02 10:46:31;;;;;;;2.60;1.90;;;;;;;20.16;36.71;95163.91;4977503;28;20174;-74
2023/05/02 10:49:04;;;;;;;2.10;1.88;;;;;;;20.02;36.75;95163.59;4977272;28;20782;-74
2023/05/02 10:51:31;;;;;;;2.40;1.92;;;;;;;20.18;37.67;95175.16;4977296;28;20674;-74
2023/05/02 10:54:14;;;;;;;1.75;1.58;;;;;;;20.10;37.39;95165.75;4967919;28;20190;-74
2023/05/02 10:56:58;;;;;;;7.05;2.33;;;;;;;20.22;36.46;95166.34;4957944;28;20198;-74
2023/05/02 10:59:28;;;;;;;4.30;1.70;;;;;;;20.36;36.40;95161.31;4958000;28;20184;-74
2023/05/02 11:01:54;;;;;;;2.25;1.60;;;;;;;20.45;36.35;95153.59;4957781;28;20621;-76
2023/05/02 11:04:19;;;;;;;2.83;1.75;;;;;;;20.60;35.98;95157.06;4957968;28;20265;-74
2023/05/02 11:07:01;;;;;;;1.70;1.60;;;;;;;20.83;35.53;95160.31;4957914;28;20269;-75
2023/05/02 11:09:26;;;;;;;2.40;1.60;;;;;;;21.05;36.56;95158.97;4957974;28;20174;-75
2023/05/02 11:11:54;;;;;;;7.22;1.88;;;;;;;21.04;35.61;95152.00;4957670;28;20198;-75
2023/05/02 11:14:28;;;;;;;4.10;1.77;;;;;;;20.92;34.70;95153.38;4957724;28;20665;-74
2023/05/02 11:16:57;;;;;;;6.22;1.75;;;;;;;20.88;35.18;95144.25;4957757;28;20319;-74
2023/05/02 11:19:23;;;;;;;1.63;1.52;;;;;;;20.73;35.85;95118.31;4957662;28;20260;-74
2023/05/02 11:21:49;;;;;;;7.68;1.95;;;;;;;20.86;35.80;95141.03;4957861;28;20256;-75
2023/05/02 11:24:40;;;;;;;2.13;1.83;;;;;;;20.67;35.55;95162.16;4957923;28;20208;-74
2023/05/02 11:27:30;;;;;;;3.85;1.90;;;;;;;20.57;35.46;95138.91;4953986;28;20191;-75
2023/05/02 11:29:56;;;;;;;3.63;2.00;;;;;;;20.58;35.79;95145.84;4954655;28;20274;-75
2023/05/02 11:32:21;;;;;;;7.95;2.22;;;;;;;20.64;36.68;95147.47;4954575;28;20309;-75
2023/05/02 11:34:51;;;;;;;2.40;1.50;;;;;;;20.77;35.40;95137.28;4954458;28;20585;-75
2023/05/02 11:37:19;;;;;;;3.13;1.88;;;;;;;20.96;35.38;95133.00;4954611;28;20241;-75